x

East Dellwood (46207) Wave Buoy

10:00am - Thu 25th Dec 2014 All times are PST. -8 hours from GMT.

  • Sig Wave height 7.5ft
  • Peak Period 10s
  • Wind
    13mph, 18mph gusts
  • Sea Temp 52°f
  • Air Temp 49°f
  • Sea Pressure 1021.1mb
  • East Dellwood
  • East Dellwood

More Historic Weather Station data

Upgrade to MSW Pro to gain access to the past 30 days of data for over 8000 Wavebouys and Weather Stations around the globe.

Join Pro

Comparision Forecast

View Surf forecast
   
Thu 12/25 10:00am 7.5ft 10s 13 18 mph 1021.1mb 52f 49f
9:00am 8.5ft 9s 16 20 mph 1020.4mb 52f 49f
8:00am 9ft 10s 9 13 mph 1020.1mb 52f 49f
7:00am 9ft 10s 11 13 mph 1019.9mb 52f 48f
6:00am 9ft 10s 13 18 mph 1020mb 52f 49f
5:00am 9ft 11s 13 20 mph 1020mb 52f 48f
4:00am 9.5ft 10s 11 16 mph 1020.3mb 52f 47f
3:00am 9.5ft 12s 11 16 mph 1020.6mb 52f 47f
2:00am 10.5ft 11s 9 13 mph 1020.7mb 52f 45f
1:00am 11ft 14s 11 16 mph 1020.7mb 52f 46f
12:00am 11ft 11s 18
mph
1020.7mb 52f 47f
Wed 12/24 11:00pm 12ft 10s 18 22 mph 1020.8mb 52f 47f
10:00pm 11.5ft 11s 18 22 mph 1020.5mb 52f 48f
9:00pm 12.5ft 11s 20
mph
1020.2mb 52f 47f
8:00pm 12.5ft 11s 20 25 mph 1020.1mb 52f 47f
7:00pm 14ft 11s 22 31 mph 1020.3mb 52f 46f
6:00pm 15ft 11s 25 31 mph 1020.1mb 52f 47f
5:00pm 14ft 10s 25 31 mph 1019.1mb 51f 48f
4:00pm 15.5ft 11s 27 31 mph 1018.4mb 51f 48f
3:00pm 15.5ft 11s 27 36 mph 1017.9mb 51f 48f
2:00pm 15ft 12s 27 34 mph 1017.3mb 51f 48f
1:00pm 15.5ft 12s 29 36 mph 1016.5mb 50f 48f
11:00am 18.5ft 12s 31 40 mph 1016.1mb 51f 48f
10:00am 19.5ft 13s 29 38 mph 1015.3mb 51f 49f
9:00am 19.5ft 14s 29 40 mph 1014.4mb 51f 49f
8:00am 19.5ft 14s 31 40 mph 1013.3mb 51f 49f
7:00am 17.5ft 14s 29 40 mph 1012.7mb 51f 49f
6:00am 19.5ft 14s 27 36 mph 1012.2mb 51f 48f
5:00am 16.5ft 12s 27 31 mph 1011.7mb 51f 48f
4:00am 18ft 14s 29 38 mph 1011.2mb 51f 49f
3:00am 19ft 13s 22 29 mph 1010.9mb 51f 47f
2:00am 18.5ft 13s 25 31 mph 1010.2mb 51f 48f
1:00am 21ft 14s 25 34 mph 1009.9mb 51f 48f
12:00am 20.5ft 15s 27
mph
1010.1mb 51f 47f
Tue 12/23 11:00pm 22.5ft 16s 29
mph
1010.1mb 51f 47f
10:00pm 22.5ft 15s 31 40 mph 1010.3mb 51f 48f
9:00pm 23.5ft 15s 29 40 mph 1010.7mb 51f 49f
8:00pm 23.5ft 15s 31 38 mph 1011.1mb 51f 48f
7:00pm 25.5ft 16s 29
mph
1011.3mb 51f 49f
6:00pm 25ft 14s 31 40 mph 1011.2mb 51f 49f
5:00pm 24.5ft 14s 31 40 mph 1011.5mb 51f 49f
3:00pm 26.5ft 15s 31 40 mph 1011.5mb 51f 49f
2:00pm 28ft 15s 31 45 mph 1011.9mb 51f 49f
1:00pm 25.5ft 15s 31 43 mph 1011.8mb 51f 50f
12:00pm 25.5ft 16s 36
mph
1011.9mb 51f 50f
11:00am 25.5ft 14s 36 45 mph 1012mb 51f 50f
10:00am 21.5ft 12s 34 43 mph 1011.9mb 51f 50f
9:00am 16.5ft 10s 31 40 mph 1011.3mb 51f 50f
8:00am 15ft 10s 31 40 mph 1010.7mb 51f 50f
7:00am 15.5ft 8s 31 45 mph 1010.8mb 51f 51f
6:00am 16.5ft 9s 34 43 mph 1010.3mb 51f 51f
5:00am 16.5ft 10s 31 40 mph 1010.4mb 51f 51f
4:00am 17ft 10s 31 40 mph 1010.2mb 51f 51f
3:00am 16.5ft 10s 29 36 mph 1009.4mb 51f 52f
2:00am  -   -  25
mph
1008.5mb 51f 53f
12:00am 19ft 8s 45 60 mph 1007.4mb 51f 49f
Mon 12/22 11:00pm 15.5ft 8s 45 58 mph 1008.8mb 51f 48f
8:00pm  -   -  40
mph
- - 46f
7:00pm 11ft 13s 36 43 mph 1019.1mb 51f 47f
6:00pm 11ft 14s 31 38 mph 1020.6mb 51f 47f
5:00pm 11ft 13s 25 29 mph 1021.8mb 50f 47f
1:00pm 13ft 15s 16 20 mph 1024.5mb 52f 50f
12:00pm 13ft 14s 13 18 mph 1025.6mb 52f 50f
11:00am 13ft 13s 9 13 mph 1026mb 52f 50f
10:00am 14.5ft 13s 4 11 mph 1025.8mb 52f 50f
9:00am 14.5ft 14s 4 9 mph 1025.4mb 52f 49f
8:00am 13.5ft 14s 7 13 mph 1025.2mb 52f 49f
7:00am 15ft 13s 9 13 mph 1025.3mb 51f 49f
6:00am  -   -  13
mph
- - -
5:00am 15.5ft 12s 16 20 mph 1023.7mb 50f 50f
4:00am 16.5ft 13s 16 20 mph 1023.4mb 50f 50f
3:00am 15.5ft 12s 18 22 mph 1022mb 50f 50f
2:00am 14.5ft 13s 22 29 mph 1020.7mb 50f 49f
12:00am 15ft 12s 25 31 mph 1018.7mb 50f 49f
Sun 12/21 11:00pm 15.5ft 11s 22 31 mph 1017.5mb 50f 50f
10:00pm 15.5ft 12s 27 34 mph 1016.3mb 51f 50f
9:00pm 15ft 12s 27 31 mph 1015.1mb 51f 50f
8:00pm 15ft 13s 25 31 mph 1014.2mb 51f 50f